Time;durP1;ratioP1;P1;durP2;ratioP2;P2;SDS_P1;SDS_P2;PMS_P1;PMS_P2;Temp;Humidity;BMP_temperature;BMP_pressure;BME280_temperature;BME280_humidity;BME280_pressure;Samples;Min_cycle;Max_cycle;Signal;HPM_P1;HPM_P2
2022/09/11 00:00:51;;;;;;;11.13;6.25;;;;;;;13.91;100.00;100334.84;5042551;28;20530;-76
2022/09/11 00:03:18;;;;;;;8.55;5.47;;;;;;;13.82;100.00;100327.06;5042462;28;20063;-76
2022/09/11 00:05:45;;;;;;;7.22;5.40;;;;;;;13.76;100.00;100330.72;5044432;28;20123;-76
2022/09/11 00:08:12;;;;;;;7.55;5.80;;;;;;;13.69;100.00;100331.78;5042757;28;20061;-75
2022/09/11 00:10:40;;;;;;;6.35;5.75;;;;;;;13.67;100.00;100335.38;5044013;28;20144;-75
2022/09/11 00:13:06;;;;;;;5.35;4.82;;;;;;;13.70;100.00;100337.94;5044137;28;20041;-75
2022/09/11 00:15:39;;;;;;;7.85;5.20;;;;;;;13.68;100.00;100343.28;5042567;28;20132;-75
2022/09/11 00:18:06;;;;;;;7.15;6.22;;;;;;;13.65;100.00;100338.06;5040046;28;20053;-74
2022/09/11 00:20:32;;;;;;;6.95;5.63;;;;;;;13.64;100.00;100333.66;5041655;28;20044;-75
2022/09/11 00:23:03;;;;;;;6.05;5.43;;;;;;;13.68;100.00;100331.81;5044158;28;20053;-75
2022/09/11 00:25:32;;;;;;;7.13;5.72;;;;;;;13.70;100.00;100332.63;5041874;28;20033;-74
2022/09/11 00:27:58;;;;;;;10.45;6.20;;;;;;;13.80;100.00;100329.75;5044258;28;20033;-75
2022/09/11 00:30:23;;;;;;;6.93;6.03;;;;;;;13.78;100.00;100339.53;5041824;28;20507;-75
2022/09/11 00:32:48;;;;;;;5.90;5.20;;;;;;;13.81;100.00;100331.50;5041481;28;20499;-75
2022/09/11 00:35:14;;;;;;;8.50;5.45;;;;;;;13.86;100.00;100334.06;5044345;28;20120;-76
2022/09/11 00:37:39;;;;;;;8.00;5.70;;;;;;;13.92;100.00;100336.56;5041544;28;20037;-76
2022/09/11 00:40:05;;;;;;;7.43;5.82;;;;;;;13.92;100.00;100335.69;5044759;28;20457;-76
2022/09/11 00:42:30;;;;;;;5.85;5.25;;;;;;;13.98;100.00;100333.75;5041927;28;20556;-75
2022/09/11 00:44:59;;;;;;;6.18;5.43;;;;;;;14.00;100.00;100328.44;5037372;28;20094;-75
2022/09/11 00:47:26;;;;;;;8.20;5.97;;;;;;;14.11;100.00;100325.53;5025250;28;20071;-76
2022/09/11 00:49:55;;;;;;;7.53;6.25;;;;;;;14.13;100.00;100324.56;5040482;28;20519;-76
2022/09/11 00:52:26;;;;;;;8.43;5.80;;;;;;;14.09;100.00;100329.97;5028473;28;20454;-75
2022/09/11 00:54:58;;;;;;;6.38;5.75;;;;;;;14.13;100.00;100329.88;5041938;28;20056;-75
2022/09/11 00:57:26;;;;;;;;;;;;;;;14.12;100.00;100327.25;5043570;28;20110;-75
2022/09/11 00:59:54;;;;;;;6.05;5.45;;;;;;;14.13;100.00;100335.19;5020182;28;20008;-75
2022/09/11 01:02:22;;;;;;;6.57;5.88;;;;;;;14.17;100.00;100334.22;5040722;28;20037;-75
2022/09/11 01:04:49;;;;;;;8.77;5.68;;;;;;;14.16;100.00;100328.94;5041121;28;20429;-75
2022/09/11 01:07:16;;;;;;;7.25;6.30;;;;;;;14.12;100.00;100330.81;5042771;28;20029;-75
2022/09/11 01:09:42;;;;;;;7.60;6.45;;;;;;;14.10;100.00;100331.75;5034228;28;20642;-75
2022/09/11 01:12:19;;;;;;;7.00;6.30;;;;;;;14.10;100.00;100329.09;5042712;28;20051;-75
2022/09/11 01:14:55;;;;;;;8.25;6.53;;;;;;;14.01;100.00;100333.69;5042339;28;20476;-75
2022/09/11 01:18:04;;;;;;;6.85;5.43;;;;;;;13.94;100.00;100339.19;5021845;28;20064;-75
2022/09/11 01:20:51;;;;;;;6.53;5.80;;;;;;;13.93;100.00;100332.13;5037541;28;20045;-76
2022/09/11 01:23:28;;;;;;;6.82;5.82;;;;;;;13.85;100.00;100336.75;5043165;28;20033;-75
2022/09/11 01:26:21;;;;;;;8.05;5.97;;;;;;;13.79;100.00;100340.41;5021233;28;20041;-76
2022/09/11 01:29:05;;;;;;;9.18;5.68;;;;;;;13.73;100.00;100345.84;5024628;28;20104;-75
2022/09/11 01:31:41;;;;;;;6.18;5.57;;;;;;;13.71;100.00;100337.91;5040008;28;20037;-75
2022/09/11 01:34:24;;;;;;;6.43;5.82;;;;;;;13.69;100.00;100338.84;5043948;28;20480;-75
2022/09/11 01:37:00;;;;;;;7.07;5.03;;;;;;;13.67;100.00;100340.66;5042936;28;20044;-75
2022/09/11 01:39:32;;;;;;;7.93;5.68;;;;;;;13.63;100.00;100339.00;5019945;28;20077;-75
2022/09/11 01:42:03;;;;;;;9.43;6.88;;;;;;;13.50;100.00;100349.88;5040900;28;20037;-75
2022/09/11 01:44:35;;;;;;;6.77;5.37;;;;;;;13.53;100.00;100344.50;5040351;28;20034;-75
2022/09/11 01:47:04;;;;;;;7.43;6.18;;;;;;;13.48;100.00;100340.19;5041255;28;20570;-76
2022/09/11 01:49:35;;;;;;;9.88;6.40;;;;;;;13.40;100.00;100340.34;5040615;28;20600;-75
2022/09/11 01:52:06;;;;;;;7.15;6.35;;;;;;;13.38;100.00;100340.38;5040049;28;20068;-76
2022/09/11 01:54:50;;;;;;;6.05;5.32;;;;;;;13.36;100.00;100350.16;5022719;28;20064;-75
2022/09/11 01:57:41;;;;;;;8.30;6.18;;;;;;;13.30;100.00;100341.44;5038413;28;20035;-75
2022/09/11 02:00:10;;;;;;;9.35;6.15;;;;;;;13.27;100.00;100342.38;5037097;28;20136;-75
2022/09/11 02:02:47;;;;;;;7.03;5.68;;;;;;;13.26;100.00;100340.66;5036710;28;20075;-75
2022/09/11 02:05:24;;;;;;;8.73;7.18;;;;;;;13.26;100.00;100343.28;5038295;28;20030;-75
2022/09/11 02:08:17;;;;;;;6.65;5.63;;;;;;;13.26;100.00;100337.09;5039770;28;20457;-75
2022/09/11 02:10:50;;;;;;;6.97;5.63;;;;;;;13.20;100.00;100335.41;5051525;28;20064;-75
2022/09/11 02:13:28;;;;;;;7.00;6.25;;;;;;;13.24;100.00;100344.19;5052264;28;20061;-75
2022/09/11 02:16:03;;;;;;;10.45;7.55;;;;;;;13.14;100.00;100332.91;5022695;28;20514;-75
2022/09/11 02:18:40;;;;;;;12.48;7.40;;;;;;;13.12;100.00;100327.63;5050416;28;20038;-75
2022/09/11 02:21:05;;;;;;;10.07;6.90;;;;;;;13.09;100.00;100338.28;5038039;28;20064;-75
2022/09/11 02:23:31;;;;;;;10.52;6.47;;;;;;;13.10;100.00;100334.75;5042695;28;20057;-75
2022/09/11 02:25:56;;;;;;;8.90;7.35;;;;;;;13.06;100.00;100335.69;5038498;28;20041;-75
2022/09/11 02:28:22;;;;;;;7.70;6.32;;;;;;;13.06;100.00;100330.41;5041036;28;20052;-75
2022/09/11 02:30:47;;;;;;;8.85;6.90;;;;;;;13.05;100.00;100333.97;5039627;28;20041;-75
2022/09/11 02:33:46;;;;;;;9.23;7.07;;;;;;;13.05;100.00;100336.63;5039605;28;20090;-75
2022/09/11 02:36:28;;;;;;;9.70;6.60;;;;;;;12.96;100.00;100336.78;5019394;28;20052;-75
2022/09/11 02:39:32;;;;;;;8.23;7.38;;;;;;;12.97;100.00;100335.88;5039905;28;20091;-75
2022/09/11 02:42:29;;;;;;;9.18;7.10;;;;;;;12.99;100.00;100335.84;5035828;28;20080;-75
2022/09/11 02:45:18;;;;;;;8.93;6.97;;;;;;;12.93;100.00;100332.41;5022385;28;20026;-75
2022/09/11 02:48:20;;;;;;;7.22;6.30;;;;;;;12.95;100.00;100335.03;5038339;28;20404;-76
2022/09/11 02:50:57;;;;;;;10.27;6.90;;;;;;;12.78;100.00;100337.97;5024360;28;20735;-75
2022/09/11 02:53:34;;;;;;;9.05;7.30;;;;;;;12.74;100.00;100335.44;5036962;28;20025;-75
2022/09/11 02:56:20;;;;;;;9.10;5.75;;;;;;;12.74;100.00;100338.09;5038176;28;20048;-75
2022/09/11 02:58:54;;;;;;;11.40;5.80;;;;;;;12.69;100.00;100338.16;5038133;28;20132;-75
2022/09/11 03:01:21;;;;;;;10.07;6.85;;;;;;;12.61;100.00;100340.94;5020630;28;20030;-75
2022/09/11 03:03:46;;;;;;;6.70;5.97;;;;;;;12.53;100.00;100345.50;5039573;28;20033;-75
2022/09/11 03:06:21;;;;;;;12.32;6.72;;;;;;;12.53;100.00;100340.22;5040512;28;20036;-75
2022/09/11 03:08:46;;;;;;;7.57;5.75;;;;;;;12.54;100.00;100346.38;5019498;28;20064;-76
2022/09/11 03:11:14;;;;;;;9.40;6.25;;;;;;;12.52;100.00;100343.75;5040040;28;20091;-75
2022/09/11 03:13:42;;;;;;;9.98;6.80;;;;;;;12.52;100.00;100345.53;5033404;28;20144;-75
2022/09/11 03:16:11;;;;;;;6.45;5.82;;;;;;;12.49;100.00;100349.09;5034353;28;20126;-75
2022/09/11 03:18:37;;;;;;;8.77;7.03;;;;;;;12.45;100.00;100353.56;5034338;28;20167;-76
2022/09/11 03:21:03;;;;;;;9.75;6.90;;;;;;;12.39;100.00;100350.13;5040292;28;20026;-75
2022/09/11 03:23:29;;;;;;;9.13;7.47;;;;;;;12.38;100.00;100353.69;5038926;28;20041;-75
2022/09/11 03:25:54;;;;;;;9.27;6.95;;;;;;;12.42;100.00;100348.34;5036468;28;20060;-75
2022/09/11 03:28:21;;;;;;;8.88;7.60;;;;;;;12.41;100.00;100358.94;5040476;28;20127;-75
2022/09/11 03:30:48;;;;;;;9.80;7.70;;;;;;;12.35;100.00;100359.91;5037632;28;20040;-75
2022/09/11 03:33:16;;;;;;;11.98;7.75;;;;;;;12.37;100.00;100358.13;5040523;28;20602;-75
2022/09/11 03:35:42;;;;;;;8.93;6.50;;;;;;;12.37;100.00;100358.13;5041465;28;20128;-75
2022/09/11 03:38:07;;;;;;;8.57;6.97;;;;;;;12.33;100.00;100353.75;5044044;28;20044;-75
2022/09/11 03:40:33;;;;;;;7.82;6.82;;;;;;;12.27;100.00;100356.53;5043976;28;20037;-75
2022/09/11 03:42:58;;;;;;;10.43;8.20;;;;;;;12.19;100.00;100359.28;5041188;28;20040;-75
2022/09/11 03:45:24;;;;;;;9.18;8.10;;;;;;;12.22;100.00;100350.44;5044700;28;20457;-76
2022/09/11 03:47:49;;;;;;;12.48;7.95;;;;;;;12.25;100.00;100356.53;5041787;28;20060;-76
2022/09/11 03:50:14;;;;;;;9.30;6.82;;;;;;;12.30;100.00;100355.59;5043552;28;20530;-75
2022/09/11 03:52:40;;;;;;;12.50;7.50;;;;;;;12.33;100.00;100359.06;5043449;28;20403;-75
2022/09/11 03:55:06;;;;;;;11.93;7.68;;;;;;;12.36;100.00;100361.66;5041005;28;20640;-75
2022/09/11 03:57:32;;;;;;;7.95;6.38;;;;;;;12.37;100.00;100362.53;5046523;28;20037;-76
2022/09/11 04:00:00;;;;;;;12.65;8.20;;;;;;;12.35;100.00;100359.03;5041018;28;20037;-76
2022/09/11 04:02:26;;;;;;;16.05;8.70;;;;;;;12.30;100.00;100367.06;5043429;28;20037;-75
2022/09/11 04:04:52;;;;;;;10.55;7.47;;;;;;;12.29;100.00;100365.31;5042479;28;20067;-75
2022/09/11 04:07:18;;;;;;;9.77;7.07;;;;;;;12.26;100.00;100374.19;5042177;28;20033;-75
2022/09/11 04:09:45;;;;;;;10.88;7.65;;;;;;;12.28;100.00;100367.06;5043607;28;20403;-75
2022/09/11 04:12:12;;;;;;;19.23;10.15;;;;;;;12.30;100.00;100376.78;5040545;28;20033;-75
2022/09/11 04:14:37;;;;;;;13.70;6.85;;;;;;;12.28;100.00;100380.28;5043851;28;20032;-75
2022/09/11 04:17:06;;;;;;;12.50;8.38;;;;;;;12.28;100.00;100384.72;5042004;28;20031;-75
2022/09/11 04:19:32;;;;;;;12.93;7.93;;;;;;;12.24;100.00;100388.31;5041736;28;20041;-75
2022/09/11 04:21:58;;;;;;;10.68;7.53;;;;;;;12.19;100.00;100387.53;5044825;28;20032;-75
2022/09/11 04:24:23;;;;;;;10.63;7.88;;;;;;;12.18;100.00;100389.28;5040869;28;20036;-75
2022/09/11 04:26:48;;;;;;;10.98;8.35;;;;;;;12.22;100.00;100388.34;5037851;28;20039;-75
2022/09/11 04:29:21;;;;;;;13.13;8.40;;;;;;;12.22;100.00;100390.97;5041785;28;20036;-75
2022/09/11 04:31:47;;;;;;;10.60;7.97;;;;;;;12.24;100.00;100390.97;5041409;28;20041;-76
2022/09/11 04:34:13;;;;;;;10.70;8.32;;;;;;;12.23;100.00;100392.72;5043405;28;20125;-75
2022/09/11 04:36:39;;;;;;;9.45;7.78;;;;;;;12.24;100.00;100398.91;5038529;28;20160;-76
2022/09/11 04:39:10;;;;;;;12.68;9.02;;;;;;;12.23;100.00;100403.31;5041185;28;20041;-75
2022/09/11 04:41:35;;;;;;;10.77;7.97;;;;;;;12.20;100.00;100397.19;5041786;28;20091;-74
2022/09/11 04:44:02;;;;;;;9.77;8.40;;;;;;;12.18;100.00;100404.28;5042732;28;20477;-75
2022/09/11 04:46:27;;;;;;;8.70;7.38;;;;;;;12.19;100.00;100413.97;5038693;28;20116;-75
2022/09/11 04:48:57;;;;;;;11.27;8.68;;;;;;;12.18;100.00;100409.56;5051545;28;20116;-75
2022/09/11 04:51:29;;;;;;;16.23;11.13;;;;;;;12.18;100.00;100414.84;5032386;28;20041;-75
2022/09/11 04:53:56;;;;;;;13.23;9.02;;;;;;;12.19;100.00;100412.19;5011885;28;20176;-76
2022/09/11 04:56:23;;;;;;;26.90;12.75;;;;;;;12.22;100.00;100412.16;5020142;28;20503;-75
2022/09/11 04:58:54;;;;;;;14.63;10.15;;;;;;;12.31;100.00;100420.84;5035360;28;20040;-76
2022/09/11 05:01:23;;;;;;;19.52;11.50;;;;;;;12.28;100.00;100408.53;5032645;28;20060;-76
2022/09/11 05:03:52;;;;;;;23.48;10.35;;;;;;;12.32;100.00;100417.31;5029245;28;20052;-76
2022/09/11 05:06:18;;;;;;;16.08;10.18;;;;;;;12.32;100.00;100420.84;5039652;28;20028;-75
2022/09/11 05:08:45;;;;;;;18.73;11.70;;;;;;;12.34;100.00;100424.34;5033927;28;20483;-76
2022/09/11 05:11:16;;;;;;;18.50;11.23;;;;;;;12.45;100.00;100424.16;5041081;28;20400;-75
2022/09/11 05:13:42;;;;;;;20.60;11.98;;;;;;;12.51;100.00;100429.34;5039593;28;20076;-76
2022/09/11 05:16:09;;;;;;;12.10;10.20;;;;;;;12.60;100.00;100429.22;5040760;28;20029;-76
2022/09/11 05:18:36;;;;;;;16.25;10.63;;;;;;;12.73;100.00;100424.56;5020886;28;20034;-76
2022/09/11 05:21:08;;;;;;;13.52;9.57;;;;;;;12.78;100.00;100428.03;5043292;28;20051;-77
2022/09/11 05:23:33;;;;;;;14.48;10.50;;;;;;;12.83;100.00;100430.59;5037192;28;20041;-76
2022/09/11 05:26:02;;;;;;;13.23;10.25;;;;;;;12.87;100.00;100427.88;5023260;28;20029;-76
2022/09/11 05:28:29;;;;;;;13.90;9.93;;;;;;;12.92;100.00;100431.31;5036230;28;20029;-76
2022/09/11 05:30:57;;;;;;;16.48;11.30;;;;;;;12.95;100.00;100435.69;5041364;28;20128;-77
2022/09/11 05:33:24;;;;;;;14.98;12.15;;;;;;;13.01;100.00;100432.94;5041223;28;20033;-77
2022/09/11 05:35:52;;;;;;;17.52;12.68;;;;;;;13.02;100.00;100439.09;5039762;28;20036;-76
2022/09/11 05:38:21;;;;;;;15.45;10.75;;;;;;;13.02;100.00;100436.44;5039432;28;20033;-77
2022/09/11 05:40:50;;;;;;;19.67;12.40;;;;;;;12.96;100.00;100445.38;5041157;28;20119;-76
2022/09/11 05:43:18;;;;;;;14.35;11.48;;;;;;;12.98;100.00;100448.88;5041413;28;20080;-76
2022/09/11 05:45:53;;;;;;;18.52;13.27;;;;;;;13.01;100.00;100454.13;5039644;28;20029;-76
2022/09/11 05:48:18;;;;;;;17.88;12.95;;;;;;;13.05;100.00;100468.22;5038398;28;20036;-76
2022/09/11 05:50:55;;;;;;;16.77;12.25;;;;;;;13.11;100.00;100466.31;5039143;28;20037;-76
2022/09/11 05:53:22;;;;;;;14.45;11.30;;;;;;;13.26;100.00;100474.91;5038499;28;20041;-76
2022/09/11 05:55:48;;;;;;;13.27;10.68;;;;;;;13.34;100.00;100480.97;5041333;28;20061;-76
2022/09/11 05:58:16;;;;;;;13.75;12.02;;;;;;;13.40;100.00;100487.94;5040149;28;20500;-77
2022/09/11 06:00:45;;;;;;;19.60;13.13;;;;;;;13.48;100.00;100489.53;5039839;28;20037;-76
2022/09/11 06:03:12;;;;;;;13.65;11.85;;;;;;;13.65;100.00;100486.56;5041784;28;20029;-77
2022/09/11 06:05:39;;;;;;;13.90;12.50;;;;;;;13.71;100.00;100485.56;5039123;28;20496;-77
2022/09/11 06:08:07;;;;;;;16.92;14.43;;;;;;;13.71;100.00;100490.88;5040807;28;20398;-77
2022/09/11 06:10:34;;;;;;;20.98;14.95;;;;;;;13.77;100.00;100494.25;5036963;28;20111;-77
2022/09/11 06:12:59;;;;;;;24.27;14.90;;;;;;;13.77;100.00;100488.97;5040254;28;20463;-76
2022/09/11 06:15:25;;;;;;;22.13;14.70;;;;;;;13.79;100.00;100494.25;5041988;28;20060;-77
2022/09/11 06:17:51;;;;;;;20.08;13.73;;;;;;;13.83;100.00;100495.91;5040107;28;20124;-77
2022/09/11 06:20:16;;;;;;;22.52;14.52;;;;;;;13.86;100.00;100492.34;5042083;28;20036;-76
2022/09/11 06:22:46;;;;;;;17.48;13.20;;;;;;;13.86;100.00;100503.84;5035905;28;20037;-76
2022/09/11 06:25:11;;;;;;;17.23;13.52;;;;;;;13.92;100.00;100493.09;5027639;28;20029;-76
2022/09/11 06:27:36;;;;;;;14.68;13.13;;;;;;;13.99;100.00;100500.03;5038624;28;20487;-76
2022/09/11 06:30:04;;;;;;;19.77;12.25;;;;;;;14.07;100.00;100505.19;5034859;28;20548;-76
2022/09/11 06:32:33;;;;;;;18.15;14.10;;;;;;;14.06;100.00;100505.19;5039990;28;20552;-76
2022/09/11 06:34:59;;;;;;;18.58;13.10;;;;;;;14.12;100.00;100507.72;5040392;28;20056;-76
2022/09/11 06:37:24;;;;;;;16.88;13.25;;;;;;;14.16;100.00;100509.41;5039128;28;20030;-76
2022/09/11 06:39:50;;;;;;;19.88;14.23;;;;;;;14.20;100.00;100517.28;5041313;28;20491;-77
2022/09/11 06:42:22;;;;;;;19.48;14.13;;;;;;;14.31;100.00;100514.41;5037434;28;20036;-77
2022/09/11 06:44:50;;;;;;;16.38;12.77;;;;;;;14.52;100.00;100512.19;5040044;28;20043;-77
2022/09/11 06:47:16;;;;;;;18.52;12.82;;;;;;;14.47;100.00;100520.25;5040631;28;20530;-76
2022/09/11 06:49:41;;;;;;;19.73;13.32;;;;;;;14.48;100.00;100514.88;5038350;28;20128;-76
2022/09/11 06:52:25;;;;;;;23.70;14.00;;;;;;;14.43;100.00;100518.53;5040920;28;20056;-77
2022/09/11 06:55:19;;;;;;;15.90;13.15;;;;;;;14.62;100.00;100529.69;5035004;28;20033;-77
2022/09/11 06:57:51;;;;;;;;;;;;;;;14.66;100.00;100526.03;5037298;28;20108;-77
2022/09/11 07:00:21;;;;;;;21.05;14.23;;;;;;;14.89;100.00;100522.84;5023014;28;19916;-77
2022/09/11 07:02:46;;;;;;;25.63;15.18;;;;;;;15.00;100.00;100530.56;5034383;28;20079;-77
2022/09/11 07:05:13;;;;;;;23.02;15.60;;;;;;;15.07;100.00;100537.47;5036131;28;20029;-77
2022/09/11 07:07:38;;;;;;;21.77;14.95;;;;;;;15.12;100.00;100538.25;5016881;28;20025;-77
2022/09/11 07:10:05;;;;;;;20.60;15.43;;;;;;;15.16;100.00;100542.53;5035553;28;20037;-76
2022/09/11 07:12:31;;;;;;;22.73;15.25;;;;;;;15.15;100.00;100535.50;5043576;28;20434;-76
2022/09/11 07:14:57;;;;;;;17.17;15.15;;;;;;;15.22;100.00;100534.44;5041653;28;20037;-77
2022/09/11 07:17:22;;;;;;;23.77;17.90;;;;;;;15.35;100.00;100532.31;5033222;28;20037;-77
2022/09/11 07:19:51;;;;;;;18.77;15.57;;;;;;;15.44;100.00;100539.19;5027280;28;20030;-77
2022/09/11 07:22:16;;;;;;;20.02;16.02;;;;;;;15.42;100.00;100541.88;5033785;28;20033;-77
2022/09/11 07:24:42;;;;;;;21.17;16.08;;;;;;;15.47;100.00;100541.78;5027608;28;20025;-77
2022/09/11 07:27:07;;;;;;;26.67;18.05;;;;;;;15.41;100.00;100544.59;5027901;28;20176;-77
2022/09/11 07:29:34;;;;;;;24.58;19.00;;;;;;;15.40;100.00;100548.16;5026489;28;20029;-77
2022/09/11 07:32:00;;;;;;;20.65;17.00;;;;;;;15.39;100.00;100549.09;5026006;28;20033;-77
2022/09/11 07:34:26;;;;;;;20.75;17.35;;;;;;;15.45;100.00;100554.22;5033349;28;20028;-77
2022/09/11 07:36:51;;;;;;;17.75;15.57;;;;;;;15.54;100.00;100562.00;5041662;28;20407;-77
2022/09/11 07:39:18;;;;;;;21.27;16.65;;;;;;;15.48;100.00;100555.03;5035759;28;20171;-77
2022/09/11 07:41:53;;;;;;;17.10;14.35;;;;;;;15.53;100.00;100558.44;5032130;28;20044;-77
2022/09/11 07:44:24;;;;;;;19.40;16.83;;;;;;;15.31;100.00;100563.44;5029027;28;20034;-77
2022/09/11 07:46:50;;;;;;;18.67;15.70;;;;;;;15.14;100.00;100562.97;5031433;28;20029;-77
2022/09/11 07:49:16;;;;;;;19.27;15.15;;;;;;;15.09;100.00;100562.22;5035318;28;20025;-77
2022/09/11 07:51:42;;;;;;;22.17;16.70;;;;;;;15.09;100.00;100560.44;5037322;28;20910;-77
2022/09/11 07:54:09;;;;;;;18.50;15.75;;;;;;;14.99;100.00;100569.56;5036784;28;20041;-76
2022/09/11 07:56:36;;;;;;;20.67;16.23;;;;;;;14.95;100.00;100569.66;5036466;28;20666;-77
2022/09/11 07:59:07;;;;;;;22.00;17.27;;;;;;;14.90;100.00;100572.41;5041899;28;20034;-76
2022/09/11 08:01:33;;;;;;;25.02;17.67;;;;;;;14.90;100.00;100575.06;5042026;28;20482;-76
2022/09/11 08:04:06;;;;;;;18.73;15.25;;;;;;;14.93;100.00;100582.97;5043897;28;20121;-76
2022/09/11 08:06:35;;;;;;;21.05;17.52;;;;;;;15.07;100.00;100580.00;5021792;28;20088;-76
2022/09/11 08:09:06;;;;;;;18.23;15.13;;;;;;;15.24;100.00;100583.09;5042813;28;20021;-77
2022/09/11 08:11:40;;;;;;;22.05;18.30;;;;;;;15.22;100.00;100592.03;5040635;28;20074;-77
2022/09/11 08:14:06;;;;;;;22.02;16.33;;;;;;;15.18;100.00;100596.56;5040052;28;20029;-77
2022/09/11 08:16:34;;;;;;;18.90;15.85;;;;;;;15.28;100.00;100605.19;5042559;28;20037;-77
2022/09/11 08:19:03;;;;;;;22.23;16.45;;;;;;;15.22;100.00;100597.34;5043471;28;20037;-77
2022/09/11 08:21:28;;;;;;;22.55;17.98;;;;;;;15.16;100.00;100609.00;5040832;28;20144;-77
2022/09/11 08:23:54;;;;;;;20.00;16.67;;;;;;;15.21;100.00;100615.09;5035008;28;20571;-77
2022/09/11 08:26:25;;;;;;;21.67;17.33;;;;;;;14.95;100.00;100618.34;5037316;28;20083;-77
2022/09/11 08:28:54;;;;;;;19.63;17.52;;;;;;;14.78;100.00;100632.03;5041456;28;20396;-76
2022/09/11 08:31:22;;;;;;;21.85;18.05;;;;;;;14.79;100.00;100624.94;5037240;28;20021;-77
2022/09/11 08:33:48;;;;;;;22.00;17.13;;;;;;;14.93;100.00;100625.47;5036897;28;20033;-76
2022/09/11 08:36:14;;;;;;;25.42;19.98;;;;;;;14.92;100.00;100630.84;5039247;28;20029;-77
2022/09/11 08:38:43;;;;;;;24.48;20.30;;;;;;;14.99;100.00;100624.50;5017180;28;20514;-77
2022/09/11 08:41:19;;;;;;;24.38;18.90;;;;;;;15.14;100.00;100634.75;5025851;28;20128;-77
2022/09/11 08:43:52;;;;;;;23.17;20.05;;;;;;;15.07;100.00;100631.38;5030511;28;20029;-76
2022/09/11 08:46:22;;;;;;;20.05;17.02;;;;;;;15.08;100.00;100640.22;5024545;28;20088;-76
2022/09/11 08:49:01;;;;;;;25.17;18.63;;;;;;;15.02;100.00;100641.22;5043556;28;20033;-77
2022/09/11 08:51:30;;;;;;;19.90;17.33;;;;;;;15.08;100.00;100645.53;5035215;28;20276;-77
2022/09/11 08:53:57;;;;;;;22.17;18.25;;;;;;;15.10;100.00;100646.38;5036275;28;20029;-76
2022/09/11 08:56:25;;;;;;;18.92;16.95;;;;;;;15.18;100.00;100647.06;5040484;28;20044;-76
2022/09/11 08:59:29;;;;;;;19.73;16.80;;;;;;;15.26;100.00;100642.44;5034217;28;20080;-77
2022/09/11 09:02:26;;;;;;;17.77;15.77;;;;;;;15.25;100.00;100645.16;5035833;28;20029;-76
2022/09/11 09:05:02;;;;;;;20.27;17.42;;;;;;;15.27;100.00;100643.31;5024395;28;20081;-76
2022/09/11 09:07:40;;;;;;;19.50;16.88;;;;;;;15.33;100.00;100644.06;5028115;28;20025;-76
2022/09/11 09:10:25;;;;;;;19.65;17.13;;;;;;;15.25;100.00;100645.16;5028080;28;20444;-76
2022/09/11 09:13:14;;;;;;;21.05;17.33;;;;;;;15.29;99.03;100657.44;5024268;28;20025;-76
2022/09/11 09:16:11;;;;;;;20.25;17.95;;;;;;;15.26;100.00;100647.75;5028509;28;20407;-77
2022/09/11 09:18:47;;;;;;;19.45;15.27;;;;;;;15.34;98.67;100656.44;5034350;28;20096;-76
2022/09/11 09:21:23;;;;;;;19.70;15.85;;;;;;;15.34;98.64;100653.75;5027174;28;20412;-76
2022/09/11 09:24:01;;;;;;;16.48;14.48;;;;;;;15.52;96.62;100657.78;5026523;28;20032;-76
2022/09/11 09:26:38;;;;;;;17.83;15.48;;;;;;;15.49;94.82;100665.84;5027915;28;20156;-76
2022/09/11 09:29:16;;;;;;;18.50;15.73;;;;;;;15.48;95.04;100660.53;5028194;28;20039;-76
2022/09/11 09:31:45;;;;;;;16.10;14.52;;;;;;;15.65;94.98;100668.13;5042883;28;20076;-76
2022/09/11 09:34:18;;;;;;;17.88;15.00;;;;;;;15.70;93.87;100664.47;5031351;28;20113;-77
2022/09/11 09:36:59;;;;;;;16.75;14.57;;;;;;;15.90;93.19;100673.72;5037642;28;20029;-77
2022/09/11 09:39:25;;;;;;;15.57;13.98;;;;;;;15.85;92.04;100671.19;5041411;28;20028;-77
2022/09/11 09:42:27;;;;;;;15.63;13.63;;;;;;;15.84;92.82;100669.44;5039207;28;20052;-76
2022/09/11 09:45:00;;;;;;;17.48;14.60;;;;;;;15.71;93.82;100673.31;5040077;28;20084;-76
2022/09/11 09:47:26;;;;;;;16.77;14.18;;;;;;;15.74;94.59;100668.78;5041335;28;20481;-76
2022/09/11 09:49:51;;;;;;;15.52;12.98;;;;;;;15.74;92.88;100668.78;5043451;28;20041;-76
2022/09/11 09:52:18;;;;;;;17.55;13.82;;;;;;;15.72;93.74;100675.94;5042158;28;20037;-77
2022/09/11 09:54:59;;;;;;;18.20;14.77;;;;;;;15.69;94.07;100680.44;5040856;28;20033;-77
2022/09/11 09:57:29;;;;;;;14.77;12.88;;;;;;;15.94;93.67;100688.69;5040289;28;20400;-76
2022/09/11 10:00:04;;;;;;;16.67;13.48;;;;;;;16.00;92.07;100680.53;5034488;28;20431;-77
2022/09/11 10:02:44;;;;;;;15.75;13.27;;;;;;;16.05;91.75;100683.97;5039957;28;20695;-77
2022/09/11 10:05:22;;;;;;;17.77;14.48;;;;;;;16.04;91.21;100682.22;5042237;28;20072;-78
2022/09/11 10:07:50;;;;;;;18.20;14.73;;;;;;;16.15;91.41;100682.81;5040098;28;20120;-77
2022/09/11 10:10:31;;;;;;;17.85;15.95;;;;;;;16.08;91.94;100689.19;5040873;28;20036;-77
2022/09/11 10:13:15;;;;;;;17.92;14.43;;;;;;;16.06;92.28;100696.38;5038565;28;20037;-78
2022/09/11 10:15:41;;;;;;;15.63;13.18;;;;;;;16.28;91.70;100694.00;5040759;28;20447;-77
2022/09/11 10:18:38;;;;;;;15.80;14.10;;;;;;;16.32;90.30;100693.03;5041892;28;20040;-77
2022/09/11 10:21:23;;;;;;;19.08;14.93;;;;;;;16.08;91.74;100702.50;5039755;28;20041;-77
2022/09/11 10:23:59;;;;;;;18.83;13.38;;;;;;;16.28;92.16;100704.66;5034715;28;20041;-77
2022/09/11 10:26:33;;;;;;;17.42;13.35;;;;;;;16.40;90.51;100698.09;5040734;28;20041;-77
2022/09/11 10:29:20;;;;;;;16.85;14.15;;;;;;;16.55;90.77;100703.00;5039728;28;20038;-77
2022/09/11 10:31:56;;;;;;;16.10;13.95;;;;;;;16.67;89.72;100708.94;5039358;28;20044;-77
2022/09/11 10:34:24;;;;;;;17.45;13.73;;;;;;;16.67;88.48;100698.28;5041383;28;20041;-76
2022/09/11 10:36:53;;;;;;;18.45;14.25;;;;;;;16.49;89.84;100710.31;5040934;28;20033;-76
2022/09/11 10:39:20;;;;;;;18.10;14.82;;;;;;;16.53;90.68;100704.88;5039481;28;20073;-77
2022/09/11 10:41:48;;;;;;;16.73;12.85;;;;;;;16.57;89.39;100719.84;5039198;28;20044;-76
2022/09/11 10:44:15;;;;;;;16.05;13.63;;;;;;;16.48;91.04;100720.13;5041327;28;20037;-76
2022/09/11 10:46:42;;;;;;;18.58;14.80;;;;;;;16.49;90.71;100719.19;5040736;28;20048;-76
2022/09/11 10:49:15;;;;;;;17.35;13.98;;;;;;;16.43;91.17;100728.22;5039574;28;20095;-77
2022/09/11 10:51:56;;;;;;;17.75;12.80;;;;;;;16.34;91.57;100731.13;5033173;28;20034;-75
2022/09/11 10:54:37;;;;;;;19.13;16.13;;;;;;;16.17;93.07;100726.25;5042786;28;20033;-75
2022/09/11 10:57:06;;;;;;;16.02;13.38;;;;;;;16.26;93.48;100729.59;5041998;28;20048;-75
2022/09/11 10:59:51;;;;;;;18.38;14.13;;;;;;;16.13;93.77;100729.91;5039017;28;20447;-75
2022/09/11 11:02:30;;;;;;;18.60;13.50;;;;;;;16.25;94.06;100723.38;5039536;28;20078;-75
2022/09/11 11:05:00;;;;;;;17.85;15.02;;;;;;;16.64;92.26;100723.22;5038696;28;20048;-76
2022/09/11 11:07:52;;;;;;;17.98;14.52;;;;;;;17.13;90.32;100711.13;5039976;28;20041;-76
2022/09/11 11:10:31;;;;;;;15.63;13.93;;;;;;;17.33;86.51;100731.88;5041479;28;20037;-76
2022/09/11 11:13:15;;;;;;;19.95;14.98;;;;;;;17.13;87.57;100723.59;5038618;28;20049;-76
2022/09/11 11:15:56;;;;;;;17.10;13.60;;;;;;;17.40;87.39;100722.78;5037542;28;20036;-76
2022/09/11 11:18:32;;;;;;;14.40;12.18;;;;;;;17.43;86.22;100721.78;5037578;28;20048;-76
2022/09/11 11:21:23;;;;;;;16.85;13.52;;;;;;;17.66;83.52;100713.06;5043102;28;20072;-75
2022/09/11 11:23:50;;;;;;;16.25;13.32;;;;;;;17.76;83.96;100706.47;5039662;28;20196;-76
2022/09/11 11:26:30;;;;;;;16.85;14.32;;;;;;;17.95;80.76;100721.00;5038228;28;20033;-76
2022/09/11 11:29:17;;;;;;;17.95;14.43;;;;;;;18.10;80.51;100713.38;5032774;28;20033;-75